Time;durP1;ratioP1;P1;durP2;ratioP2;P2;SDS_P1;SDS_P2;PMS_P1;PMS_P2;Temp;Humidity;BMP_temperature;BMP_pressure;BME280_temperature;BME280_humidity;BME280_pressure;Samples;Min_cycle;Max_cycle;Signal;HPM_P1;HPM_P2
2023/08/01 00:00:34;;;;;;;12.85;8.38;;;;;;;22.80;55.92;99959.34;5040110;28;20103;-35
2023/08/01 00:03:01;;;;;;;12.80;8.50;;;;;;;22.79;55.98;99958.47;5038923;28;20045;-36
2023/08/01 00:05:27;;;;;;;10.93;7.88;;;;;;;22.77;56.34;99957.88;5038646;28;20053;-35
2023/08/01 00:07:54;;;;;;;12.13;8.07;;;;;;;22.78;55.81;99962.22;5042559;28;20053;-36
2023/08/01 00:10:21;;;;;;;11.80;8.13;;;;;;;22.77;56.19;99957.03;5030177;28;20099;-35
2023/08/01 00:12:47;;;;;;;11.00;7.47;;;;;;;22.78;55.73;99953.28;5028041;28;20132;-36
2023/08/01 00:15:14;;;;;;;11.60;8.15;;;;;;;22.77;55.90;99955.16;5029848;28;20119;-35
2023/08/01 00:17:40;;;;;;;11.27;7.60;;;;;;;22.76;56.01;99956.22;5022663;28;20049;-36
2023/08/01 00:20:08;;;;;;;12.23;7.93;;;;;;;22.75;55.83;99954.53;5028157;28;20131;-37
2023/08/01 00:22:35;;;;;;;10.98;7.18;;;;;;;22.75;55.93;99948.28;5024493;28;20103;-35
2023/08/01 00:25:01;;;;;;;11.38;7.57;;;;;;;22.72;56.07;99946.84;5026788;28;20052;-35
2023/08/01 00:27:28;;;;;;;10.52;7.57;;;;;;;22.73;55.74;99940.41;5026340;28;20053;-35
2023/08/01 00:30:07;;;;;;;10.68;7.13;;;;;;;22.73;56.22;99942.28;5027269;28;20084;-36
2023/08/01 00:32:35;;;;;;;11.10;6.93;;;;;;;22.72;56.19;99938.75;5022559;28;20037;-36
2023/08/01 00:35:02;;;;;;;12.35;7.05;;;;;;;22.72;56.07;99929.81;5025774;28;20062;-35
2023/08/01 00:37:29;;;;;;;12.43;8.38;;;;;;;22.71;55.68;99925.44;5026976;28;20056;-35
2023/08/01 00:39:56;;;;;;;12.18;7.07;;;;;;;22.71;55.98;99925.44;5029277;28;20655;-35
2023/08/01 00:42:22;;;;;;;10.93;6.53;;;;;;;22.69;55.69;99917.56;5025726;28;20111;-36
2023/08/01 00:44:51;;;;;;;10.07;6.78;;;;;;;22.68;55.74;99902.38;5029490;28;20475;-35
2023/08/01 00:47:18;;;;;;;11.43;6.88;;;;;;;22.69;55.63;99897.81;5024747;28;20171;-35
2023/08/01 00:49:45;;;;;;;10.38;6.68;;;;;;;22.67;56.17;99898.84;5029674;28;20053;-36
2023/08/01 00:52:12;;;;;;;9.48;6.13;;;;;;;22.66;55.90;99894.47;5025534;28;20074;-35
2023/08/01 00:54:39;;;;;;;8.77;5.97;;;;;;;22.65;56.10;99884.72;5028098;28;21463;-35
2023/08/01 00:57:06;;;;;;;9.10;6.20;;;;;;;22.65;55.80;99890.13;5029295;28;20119;-35
2023/08/01 00:59:34;;;;;;;9.05;6.55;;;;;;;22.65;55.99;99883.88;5022550;28;20053;-36
2023/08/01 01:02:01;;;;;;;8.93;6.00;;;;;;;22.66;55.95;99890.94;5025569;28;20455;-36
2023/08/01 01:04:28;;;;;;;8.57;5.90;;;;;;;22.64;56.12;99885.75;5025824;28;20060;-36
2023/08/01 01:07:02;;;;;;;9.75;6.38;;;;;;;22.64;55.80;99884.94;5023686;28;20061;-35
2023/08/01 01:09:31;;;;;;;8.43;5.63;;;;;;;22.63;56.23;99892.22;5029426;28;20426;-35
2023/08/01 01:11:59;;;;;;;7.25;5.15;;;;;;;22.63;55.98;99886.81;5026034;28;20058;-34
2023/08/01 01:14:29;;;;;;;8.57;6.00;;;;;;;22.62;56.22;99885.13;5022989;28;20499;-34
2023/08/01 01:16:55;;;;;;;8.90;5.60;;;;;;;22.60;55.98;99887.22;5023916;28;21983;-37
2023/08/01 01:19:22;;;;;;;9.15;5.60;;;;;;;22.61;55.58;99885.34;5026252;28;20068;-37
2023/08/01 01:21:50;;;;;;;9.60;6.07;;;;;;;22.60;55.91;99884.50;5025952;28;20048;-38
2023/08/01 01:24:19;;;;;;;8.30;5.32;;;;;;;22.60;55.90;99879.09;5030422;28;20086;-38
2023/08/01 01:26:47;;;;;;;7.82;5.57;;;;;;;22.59;56.00;99885.56;5035643;28;20128;-36
2023/08/01 01:29:14;;;;;;;8.40;5.85;;;;;;;22.60;55.91;99889.09;5039370;28;20422;-36
2023/08/01 01:31:41;;;;;;;8.73;5.85;;;;;;;22.58;55.84;99881.16;5040777;28;20133;-37
2023/08/01 01:34:08;;;;;;;7.90;5.25;;;;;;;22.58;55.67;99886.56;5041333;28;20086;-37
2023/08/01 01:36:35;;;;;;;8.23;5.03;;;;;;;22.55;55.96;99881.59;5038148;28;20381;-37
2023/08/01 01:39:01;;;;;;;7.82;5.63;;;;;;;22.56;55.90;99885.97;5036620;28;20365;-37
2023/08/01 01:41:28;;;;;;;8.98;5.15;;;;;;;22.55;55.92;99878.91;5037755;28;20060;-36
2023/08/01 01:43:54;;;;;;;7.82;5.13;;;;;;;22.55;56.02;99878.06;5036514;28;20136;-37
2023/08/01 01:46:21;;;;;;;7.40;4.80;;;;;;;22.54;55.69;99879.91;5036711;28;20053;-37
2023/08/01 01:48:48;;;;;;;6.60;5.05;;;;;;;22.54;55.64;99882.63;5038844;28;20052;-37
2023/08/01 01:51:14;;;;;;;8.02;5.45;;;;;;;22.53;55.86;99878.28;5041906;28;20045;-37
2023/08/01 01:53:41;;;;;;;6.88;4.80;;;;;;;22.53;55.70;99880.97;5038963;28;20052;-37
2023/08/01 01:56:08;;;;;;;7.57;4.93;;;;;;;22.52;55.74;99879.31;5029550;28;20099;-37
2023/08/01 01:58:34;;;;;;;8.30;5.18;;;;;;;22.53;55.94;99872.03;5027893;28;20402;-37
2023/08/01 02:01:01;;;;;;;7.82;4.97;;;;;;;22.53;55.66;99875.56;5026240;28;20052;-34
2023/08/01 02:03:28;;;;;;;7.70;5.13;;;;;;;22.52;55.86;99873.09;5025308;28;20110;-38
2023/08/01 02:05:55;;;;;;;6.53;4.57;;;;;;;22.52;55.97;99878.50;5024845;28;21947;-36
2023/08/01 02:08:21;;;;;;;8.82;4.88;;;;;;;22.51;55.69;99879.50;5027422;28;20145;-37
2023/08/01 02:10:48;;;;;;;7.07;4.57;;;;;;;22.51;55.60;99888.44;5028809;28;20099;-38
2023/08/01 02:13:14;;;;;;;6.78;4.68;;;;;;;22.52;55.63;99895.53;5027464;28;20049;-37
2023/08/01 02:15:41;;;;;;;6.63;4.65;;;;;;;22.52;55.70;99897.38;5028504;28;20127;-37
2023/08/01 02:18:08;;;;;;;6.53;4.47;;;;;;;22.51;55.49;99885.72;5022716;28;20942;-35
2023/08/01 02:20:34;;;;;;;7.90;4.88;;;;;;;22.52;55.73;99889.28;5023042;28;20045;-36
2023/08/01 02:23:01;;;;;;;8.07;4.72;;;;;;;22.52;55.27;99889.28;5026894;28;20072;-34
2023/08/01 02:25:27;;;;;;;6.35;4.90;;;;;;;22.52;55.71;99897.38;5026229;28;20049;-35
2023/08/01 02:27:54;;;;;;;6.43;4.15;;;;;;;22.52;56.06;99892.00;5023421;28;20069;-35
2023/08/01 02:30:20;;;;;;;7.47;4.57;;;;;;;22.51;55.72;99872.22;5031126;28;20049;-34
2023/08/01 02:32:47;;;;;;;7.70;5.00;;;;;;;22.51;55.48;99874.94;5021342;28;20485;-35
2023/08/01 02:35:14;;;;;;;7.53;4.70;;;;;;;22.50;55.95;99859.78;5025322;28;20064;-35
2023/08/01 02:37:40;;;;;;;6.88;4.45;;;;;;;22.50;56.02;99858.94;5027649;28;20091;-36
2023/08/01 02:40:08;;;;;;;6.53;4.50;;;;;;;22.49;55.93;99866.22;5025681;28;20131;-35
2023/08/01 02:42:35;;;;;;;6.38;3.92;;;;;;;22.50;55.90;99865.16;5029411;28;20133;-34
2023/08/01 02:45:02;;;;;;;6.13;4.00;;;;;;;22.48;55.69;99869.97;5027411;28;20124;-35
2023/08/01 02:47:28;;;;;;;8.00;4.30;;;;;;;22.48;56.16;99858.34;5027983;28;20064;-35
2023/08/01 02:49:55;;;;;;;5.80;3.95;;;;;;;22.48;56.10;99863.75;5025856;28;20334;-35
2023/08/01 02:52:21;;;;;;;7.90;4.57;;;;;;;22.48;55.73;99866.44;5030545;28;20049;-35
2023/08/01 02:54:48;;;;;;;6.47;3.92;;;;;;;22.48;55.95;99863.75;5030539;28;20057;-35
2023/08/01 02:57:15;;;;;;;6.00;4.30;;;;;;;22.47;55.77;99862.88;5031253;28;20483;-34
2023/08/01 02:59:42;;;;;;;5.82;3.80;;;;;;;22.47;55.91;99873.69;5029279;28;20045;-35
2023/08/01 03:02:08;;;;;;;5.13;3.47;;;;;;;22.46;55.92;99863.91;5028197;28;20124;-34
2023/08/01 03:04:35;;;;;;;7.28;4.25;;;;;;;22.47;55.65;99868.28;5029963;28;20127;-34
2023/08/01 03:07:13;;;;;;;5.40;3.60;;;;;;;22.48;55.84;99866.44;5030683;28;20041;-34
2023/08/01 03:09:39;;;;;;;5.90;3.60;;;;;;;22.47;55.92;99875.56;5028958;28;20046;-34
2023/08/01 03:12:06;;;;;;;6.18;3.88;;;;;;;22.46;55.92;99866.63;5028862;28;20050;-33
2023/08/01 03:14:33;;;;;;;5.65;3.53;;;;;;;22.46;55.74;99865.78;5031731;28;20714;-34
2023/08/01 03:16:59;;;;;;;6.05;3.80;;;;;;;22.46;55.93;99876.59;5030588;28;20168;-35
2023/08/01 03:19:26;;;;;;;5.38;3.47;;;;;;;22.45;55.60;99875.78;5028679;28;20089;-34
2023/08/01 03:21:53;;;;;;;4.50;3.45;;;;;;;22.45;55.94;99874.94;5029148;28;20080;-34
2023/08/01 03:24:19;;;;;;;5.20;3.38;;;;;;;22.45;55.86;99877.63;5044704;28;20340;-34
2023/08/01 03:26:46;;;;;;;6.05;3.80;;;;;;;22.45;55.84;99866.84;5026413;28;20099;-34
2023/08/01 03:29:12;;;;;;;6.38;3.78;;;;;;;22.43;55.89;99864.31;5028389;28;20085;-34
2023/08/01 03:31:39;;;;;;;6.20;3.85;;;;;;;22.43;55.67;99864.31;5032890;28;20045;-35
2023/08/01 03:34:08;;;;;;;5.60;3.53;;;;;;;22.43;56.13;99864.31;5033803;28;20056;-34
2023/08/01 03:36:35;;;;;;;6.18;3.78;;;;;;;22.44;55.68;99862.50;5028567;28;20449;-37
2023/08/01 03:39:03;;;;;;;5.40;3.50;;;;;;;22.42;55.63;99863.50;5027025;28;20045;-38
2023/08/01 03:41:32;;;;;;;5.05;3.13;;;;;;;22.41;55.57;99861.84;5029663;28;20122;-38
2023/08/01 03:43:59;;;;;;;5.70;3.53;;;;;;;22.41;55.75;99861.84;5027629;28;20133;-37
2023/08/01 03:46:26;;;;;;;5.45;3.45;;;;;;;22.42;55.76;99865.38;5027261;28;20049;-37
2023/08/01 03:48:52;;;;;;;7.18;4.13;;;;;;;22.40;55.75;99871.00;5027129;28;20053;-37
2023/08/01 03:51:20;;;;;;;4.93;3.03;;;;;;;22.40;55.72;99875.56;5029942;28;20053;-37
2023/08/01 03:53:47;;;;;;;4.72;3.20;;;;;;;22.41;55.81;99869.13;5031535;28;20128;-36
2023/08/01 03:56:25;;;;;;;5.88;3.72;;;;;;;22.40;55.78;99870.16;5028737;28;20076;-34
2023/08/01 03:58:51;;;;;;;4.30;3.10;;;;;;;22.39;56.04;99880.13;5033772;28;20099;-35
2023/08/01 04:01:18;;;;;;;6.55;3.08;;;;;;;22.40;56.00;99880.97;5027579;28;20100;-34
2023/08/01 04:03:45;;;;;;;5.13;3.40;;;;;;;22.39;55.83;99872.03;5027318;28;20064;-36
2023/08/01 04:06:15;;;;;;;4.38;3.15;;;;;;;22.39;55.64;99871.19;5028770;28;20052;-34
2023/08/01 04:08:41;;;;;;;5.85;3.28;;;;;;;22.38;55.76;99870.34;5027866;28;20342;-35
2023/08/01 04:11:08;;;;;;;6.95;3.42;;;;;;;22.38;55.81;99878.44;5028170;28;20049;-36
2023/08/01 04:13:34;;;;;;;5.75;3.10;;;;;;;22.39;55.93;99872.03;5027520;28;20077;-37
2023/08/01 04:16:01;;;;;;;5.82;3.38;;;;;;;22.39;55.56;99873.88;5028643;28;20092;-37
2023/08/01 04:18:28;;;;;;;6.47;3.58;;;;;;;22.38;55.52;99870.34;5032771;28;20054;-38
2023/08/01 04:20:54;;;;;;;8.05;3.83;;;;;;;22.39;55.95;99873.88;5033349;28;20064;-38
2023/08/01 04:23:21;;;;;;;8.35;4.22;;;;;;;22.38;56.01;99872.22;5032701;28;20042;-37
2023/08/01 04:25:47;;;;;;;9.20;4.30;;;;;;;22.38;55.36;99866.81;5023248;28;20136;-37
2023/08/01 04:28:14;;;;;;;6.78;3.70;;;;;;;22.38;55.32;99875.75;5030786;28;20425;-37
2023/08/01 04:30:40;;;;;;;8.30;3.88;;;;;;;22.37;55.75;99868.69;5032832;28;20060;-36
2023/08/01 04:33:07;;;;;;;7.90;3.88;;;;;;;22.38;55.64;99867.66;5032374;28;20099;-38
2023/08/01 04:35:34;;;;;;;10.05;4.60;;;;;;;22.38;55.59;99864.94;5035400;28;20049;-37
2023/08/01 04:38:00;;;;;;;8.57;4.43;;;;;;;22.39;55.65;99865.78;5033521;28;20077;-38
2023/08/01 04:40:27;;;;;;;8.90;4.72;;;;;;;22.38;55.84;99862.25;5036085;28;20613;-37
2023/08/01 04:42:54;;;;;;;10.18;4.53;;;;;;;22.38;55.90;99862.25;5034511;28;20045;-36
2023/08/01 04:45:20;;;;;;;11.65;5.43;;;;;;;22.39;55.69;99863.06;5033685;28;20049;-37
2023/08/01 04:47:47;;;;;;;7.88;4.68;;;;;;;22.39;55.57;99861.25;5032651;28;20053;-37
2023/08/01 04:50:13;;;;;;;10.63;6.00;;;;;;;22.39;56.08;99863.94;5031664;28;20042;-37
2023/08/01 04:52:40;;;;;;;13.85;5.70;;;;;;;22.39;55.73;99857.69;5036003;28;20076;-37
2023/08/01 04:55:07;;;;;;;16.58;6.15;;;;;;;22.41;55.79;99866.41;5038040;28;20045;-37
2023/08/01 04:57:33;;;;;;;10.13;5.22;;;;;;;22.39;55.71;99868.47;5034047;28;20045;-36
2023/08/01 05:00:00;;;;;;;10.10;5.57;;;;;;;22.40;55.83;99867.47;5033828;28;20207;-36
2023/08/01 05:02:27;;;;;;;11.10;5.57;;;;;;;22.40;55.69;99876.38;5033769;28;20485;-37
2023/08/01 05:04:53;;;;;;;10.52;5.70;;;;;;;22.40;55.99;99872.88;5032648;28;20357;-34
2023/08/01 05:07:20;;;;;;;13.68;6.50;;;;;;;22.40;56.15;99872.88;5034253;28;20068;-34
2023/08/01 05:09:46;;;;;;;12.90;5.90;;;;;;;22.41;55.68;99877.22;5035667;28;20396;-35
2023/08/01 05:12:13;;;;;;;12.23;6.75;;;;;;;22.40;55.93;99878.25;5034068;28;20191;-36
2023/08/01 05:14:40;;;;;;;15.40;6.82;;;;;;;22.41;55.90;99879.91;5035259;28;20111;-34
2023/08/01 05:17:06;;;;;;;12.68;5.97;;;;;;;22.40;55.75;99881.78;5031839;28;20103;-37
2023/08/01 05:19:33;;;;;;;11.77;5.65;;;;;;;22.40;55.61;99876.38;5034875;28;20160;-35
2023/08/01 05:21:59;;;;;;;12.45;6.50;;;;;;;22.41;55.59;99885.31;5033373;28;20057;-34
2023/08/01 05:24:26;;;;;;;11.52;6.38;;;;;;;22.41;55.62;99888.03;5032967;28;20069;-34
2023/08/01 05:26:53;;;;;;;12.65;6.38;;;;;;;22.40;55.48;99889.91;5030813;28;20049;-36
2023/08/01 05:29:19;;;;;;;12.95;6.68;;;;;;;22.41;55.94;99888.03;5033396;28;20132;-35
2023/08/01 05:31:46;;;;;;;13.25;6.18;;;;;;;22.41;55.60;99888.84;5033499;28;20203;-35
2023/08/01 05:34:13;;;;;;;12.63;6.10;;;;;;;22.42;55.97;99877.00;5032613;28;20041;-34
2023/08/01 05:36:39;;;;;;;11.80;6.80;;;;;;;22.44;55.96;99882.22;5030932;28;20072;-35
2023/08/01 05:39:07;;;;;;;11.82;6.10;;;;;;;22.46;55.52;99890.94;5029337;28;20044;-35
2023/08/01 05:41:33;;;;;;;11.57;6.50;;;;;;;22.44;55.62;99882.22;5031431;28;20084;-35
2023/08/01 05:44:00;;;;;;;14.43;7.82;;;;;;;22.46;55.95;99876.59;5040338;28;20338;-34
2023/08/01 05:46:27;;;;;;;11.02;5.85;;;;;;;22.45;55.83;99883.03;5036060;28;20410;-35
2023/08/01 05:48:53;;;;;;;10.88;6.43;;;;;;;22.47;55.80;99880.94;5030731;28;20053;-34
2023/08/01 05:51:20;;;;;;;11.88;6.80;;;;;;;22.48;55.65;99888.03;5035470;28;20111;-36
2023/08/01 05:53:46;;;;;;;11.57;6.50;;;;;;;22.49;55.91;99890.53;5036178;28;20434;-34
2023/08/01 05:56:13;;;;;;;14.07;6.95;;;;;;;22.50;55.72;99904.84;5032644;28;20092;-34
2023/08/01 05:58:40;;;;;;;17.00;7.47;;;;;;;22.49;55.81;99897.78;5032098;28;20441;-35
2023/08/01 06:01:09;;;;;;;12.93;6.80;;;;;;;22.50;55.78;99899.44;5032317;28;20061;-35
2023/08/01 06:03:35;;;;;;;11.25;6.63;;;;;;;22.50;55.89;99907.56;5027504;28;20071;-34
2023/08/01 06:06:02;;;;;;;12.65;6.55;;;;;;;22.52;55.41;99905.50;5033522;28;20492;-35
2023/08/01 06:08:29;;;;;;;12.85;7.18;;;;;;;22.51;55.61;99906.50;5035327;28;20056;-35
2023/08/01 06:10:55;;;;;;;14.80;7.15;;;;;;;22.52;55.63;99902.78;5043903;28;20119;-36
2023/08/01 06:13:22;;;;;;;11.48;6.97;;;;;;;22.53;55.48;99902.56;5037736;28;20048;-35
2023/08/01 06:15:49;;;;;;;11.82;7.15;;;;;;;22.54;55.71;99906.94;5034883;28;20334;-35
2023/08/01 06:18:15;;;;;;;11.13;7.28;;;;;;;22.56;55.34;99906.75;5032672;28;20103;-36
2023/08/01 06:20:42;;;;;;;12.77;7.43;;;;;;;22.59;55.85;99914.41;5032332;28;20124;-34
2023/08/01 06:23:08;;;;;;;14.80;7.20;;;;;;;22.60;55.27;99914.22;5035034;28;20107;-35
2023/08/01 06:25:35;;;;;;;11.95;7.05;;;;;;;22.62;55.46;99922.09;5036046;28;20049;-34
2023/08/01 06:28:01;;;;;;;11.63;6.65;;;;;;;22.64;55.47;99920.88;5032948;28;20069;-35
2023/08/01 06:30:28;;;;;;;14.18;5.57;;;;;;;22.66;55.39;99923.34;5030872;28;20441;-38
2023/08/01 06:32:55;;;;;;;10.57;5.82;;;;;;;22.66;55.16;99934.16;5033534;28;20072;-35
2023/08/01 06:35:21;;;;;;;11.93;6.30;;;;;;;22.66;55.26;99935.00;5034812;28;20072;-35
2023/08/01 06:37:48;;;;;;;13.10;6.70;;;;;;;22.67;54.97;99931.28;5032325;28;20372;-35
2023/08/01 06:40:15;;;;;;;10.68;6.00;;;;;;;22.69;54.97;99935.63;5033770;28;20422;-35
2023/08/01 06:42:42;;;;;;;11.30;6.15;;;;;;;22.68;54.75;99937.50;5034051;28;20099;-35
2023/08/01 06:45:09;;;;;;;8.98;5.93;;;;;;;22.69;54.96;99944.56;5034369;28;20053;-35
2023/08/01 06:47:36;;;;;;;9.95;5.70;;;;;;;22.70;55.26;99943.50;5033798;28;20079;-35
2023/08/01 06:50:02;;;;;;;11.75;5.95;;;;;;;22.71;55.47;99930.84;5036364;28;20369;-35
2023/08/01 06:52:29;;;;;;;11.88;6.18;;;;;;;22.71;55.46;99930.84;5033576;28;20096;-35
2023/08/01 06:54:56;;;;;;;7.95;5.13;;;;;;;22.71;54.93;99928.97;5034736;28;20437;-35
2023/08/01 06:57:22;;;;;;;10.30;5.68;;;;;;;22.72;54.70;99927.13;5034325;28;20132;-36
2023/08/01 06:59:49;;;;;;;10.07;5.93;;;;;;;22.72;54.87;99943.31;5034464;28;20104;-34
2023/08/01 07:02:16;;;;;;;8.73;5.38;;;;;;;22.72;54.89;99935.22;5032434;28;20080;-37
2023/08/01 07:04:42;;;;;;;10.65;5.75;;;;;;;22.73;55.27;99934.19;5032176;28;20397;-34
2023/08/01 07:07:09;;;;;;;11.45;5.55;;;;;;;22.70;55.09;99938.13;5032308;28;20524;-34
2023/08/01 07:09:37;;;;;;;10.10;5.80;;;;;;;22.70;55.24;99938.13;5041154;28;20608;-35
2023/08/01 07:12:04;;;;;;;7.90;4.72;;;;;;;22.71;54.98;99942.47;5037446;28;20081;-35
2023/08/01 07:14:30;;;;;;;7.88;4.57;;;;;;;22.70;55.18;99934.59;5038702;28;20050;-34
2023/08/01 07:16:57;;;;;;;9.52;5.25;;;;;;;22.70;55.21;99940.81;5036686;28;20112;-36
2023/08/01 07:19:23;;;;;;;10.95;5.60;;;;;;;22.71;55.38;99928.97;5037859;28;20077;-35
2023/08/01 07:21:50;;;;;;;9.30;4.97;;;;;;;22.71;54.70;99925.44;5036871;28;20128;-35
2023/08/01 07:24:16;;;;;;;8.57;4.70;;;;;;;22.72;55.06;99932.53;5039635;28;20137;-36
2023/08/01 07:26:43;;;;;;;8.75;4.63;;;;;;;22.72;54.71;99935.22;5036317;28;20215;-39
2023/08/01 07:29:11;;;;;;;10.00;4.95;;;;;;;22.72;54.95;99946.03;5042034;28;20053;-35
2023/08/01 07:31:37;;;;;;;8.57;5.10;;;;;;;22.71;54.97;99947.03;5035662;28;20472;-36
2023/08/01 07:34:04;;;;;;;8.00;4.63;;;;;;;22.70;54.47;99938.13;5032910;28;20544;-35
2023/08/01 07:36:31;;;;;;;10.02;4.65;;;;;;;22.69;55.01;99939.16;5032847;28;20057;-36
2023/08/01 07:38:57;;;;;;;9.20;4.43;;;;;;;22.71;54.89;99957.84;5038715;28;20057;-36
2023/08/01 07:41:24;;;;;;;7.45;4.57;;;;;;;22.71;54.76;99947.03;5039317;28;20046;-36
2023/08/01 07:43:51;;;;;;;8.27;3.85;;;;;;;22.70;54.82;99943.50;5038540;28;20052;-36
2023/08/01 07:46:17;;;;;;;8.60;4.32;;;;;;;22.71;55.55;99957.84;5037860;28;20059;-35
2023/08/01 07:48:44;;;;;;;7.82;3.97;;;;;;;22.72;54.97;99940.63;5033536;28;20057;-36
2023/08/01 07:51:11;;;;;;;11.10;4.28;;;;;;;22.73;54.93;99956.63;5041643;28;20604;-36
2023/08/01 07:53:38;;;;;;;8.00;3.70;;;;;;;22.74;54.99;99949.34;5039169;28;20042;-36
2023/08/01 07:56:07;;;;;;;6.63;3.47;;;;;;;22.77;54.75;99954.34;5036084;28;20111;-36
2023/08/01 07:58:35;;;;;;;7.38;3.35;;;;;;;22.77;54.65;99968.69;5035950;28;20048;-35
2023/08/01 08:01:03;;;;;;;5.70;3.00;;;;;;;22.78;54.32;99966.81;5037774;28;20049;-36
2023/08/01 08:03:30;;;;;;;6.15;3.10;;;;;;;22.80;54.73;99979.06;5022488;28;20424;-35
2023/08/01 08:05:58;;;;;;;7.35;3.45;;;;;;;22.80;54.60;99967.44;5026800;28;20049;-36
2023/08/01 08:08:24;;;;;;;6.63;3.42;;;;;;;22.82;54.53;99970.75;5030335;28;20045;-36
2023/08/01 08:10:51;;;;;;;7.78;3.25;;;;;;;22.82;54.47;99971.59;5031369;28;20484;-35
2023/08/01 08:13:18;;;;;;;7.10;2.97;;;;;;;22.83;54.65;99967.84;5034506;28;20386;-36
2023/08/01 08:15:44;;;;;;;6.40;2.55;;;;;;;22.84;54.67;99968.69;5033630;28;20057;-35
2023/08/01 08:18:11;;;;;;;8.00;2.95;;;;;;;22.86;54.50;99974.72;5028998;28;20103;-37
2023/08/01 08:20:43;;;;;;;5.95;2.42;;;;;;;22.86;54.39;99980.13;5029739;28;20051;-36
2023/08/01 08:23:10;;;;;;;6.72;2.35;;;;;;;22.87;54.30;99979.91;5030479;28;20441;-36
2023/08/01 08:25:37;;;;;;;7.57;2.40;;;;;;;22.88;54.46;99980.75;5031480;28;20080;-35
2023/08/01 08:28:03;;;;;;;8.63;2.85;;;;;;;22.90;54.25;99978.66;5031342;28;20107;-35
2023/08/01 08:30:30;;;;;;;8.25;2.80;;;;;;;22.90;54.27;99978.66;5030740;28;20080;-35
2023/08/01 08:33:00;;;;;;;6.28;2.40;;;;;;;22.91;54.20;99966.84;5023213;28;20487;-35
2023/08/01 08:35:27;;;;;;;7.55;2.38;;;;;;;22.93;53.89;99975.59;5029650;28;20049;-35
2023/08/01 08:37:54;;;;;;;4.82;2.22;;;;;;;22.95;54.27;99986.16;5033923;28;20050;-35
2023/08/01 08:40:20;;;;;;;5.32;2.92;;;;;;;22.95;53.93;100000.50;5035734;28;20409;-35
2023/08/01 08:42:48;;;;;;;3.20;1.85;;;;;;;22.97;53.90;99993.03;5034144;28;20076;-38
2023/08/01 08:45:19;;;;;;;6.60;2.28;;;;;;;22.97;53.83;99997.63;5034350;28;20134;-36
2023/08/01 08:47:51;;;;;;;8.35;2.40;;;;;;;22.99;53.59;100007.16;5028219;28;20068;-35
2023/08/01 08:50:18;;;;;;;4.88;2.45;;;;;;;23.00;53.68;99995.34;5034824;28;20103;-35
2023/08/01 08:52:46;;;;;;;5.93;2.00;;;;;;;23.01;53.45;100001.56;5034711;28;20392;-35
2023/08/01 08:55:13;;;;;;;5.30;2.05;;;;;;;22.99;53.87;99996.34;5032748;28;20361;-36
2023/08/01 08:57:40;;;;;;;5.25;2.00;;;;;;;23.01;53.58;100017.78;5035418;28;20099;-35
2023/08/01 09:00:07;;;;;;;5.03;1.60;;;;;;;23.02;53.21;100014.88;5030364;28;20496;-36
2023/08/01 09:02:34;;;;;;;4.35;1.88;;;;;;;23.03;53.63;100013.00;5033723;28;20041;-36
2023/08/01 09:05:01;;;;;;;8.10;2.08;;;;;;;23.03;53.54;100000.31;5035945;28;20075;-36
2023/08/01 09:07:33;;;;;;;5.47;2.10;;;;;;;23.04;53.48;100009.28;5027514;28;20053;-35
2023/08/01 09:10:00;;;;;;;3.75;1.85;;;;;;;23.05;53.33;100003.66;5035547;28;20061;-35
2023/08/01 09:12:27;;;;;;;6.40;1.92;;;;;;;23.05;53.50;100002.81;5027718;28;20053;-36
2023/08/01 09:14:56;;;;;;;8.60;2.33;;;;;;;23.06;53.38;100020.69;5029587;28;20046;-38
2023/08/01 09:17:25;;;;;;;11.43;3.33;;;;;;;23.08;53.55;100015.94;5032487;28;20128;-36
2023/08/01 09:20:03;;;;;;;13.30;4.07;;;;;;;23.07;53.33;100017.78;5033614;28;20084;-36
2023/08/01 09:22:30;;;;;;;14.43;3.10;;;;;;;23.09;53.61;100021.13;5034891;28;20108;-35
2023/08/01 09:24:57;;;;;;;12.25;3.22;;;;;;;23.09;53.74;100010.31;5033251;28;20041;-36
2023/08/01 09:27:33;;;;;;;11.43;3.33;;;;;;;23.09;53.27;100026.53;5030630;28;20114;-38
2023/08/01 09:30:26;;;;;;;14.40;3.58;;;;;;;23.08;53.42;100035.69;5033155;28;20392;-36
2023/08/01 09:32:53;;;;;;;12.85;4.53;;;;;;;23.11;53.51;100029.84;5032233;28;20442;-38
2023/08/01 09:35:21;;;;;;;11.57;3.65;;;;;;;23.15;53.24;100039.19;5033374;28;20131;-36
2023/08/01 09:37:48;;;;;;;14.18;3.80;;;;;;;23.19;53.61;100038.78;5030437;28;20323;-36
2023/08/01 09:40:15;;;;;;;16.98;4.50;;;;;;;23.22;53.66;100043.78;5032889;28;20053;-36
2023/08/01 09:42:44;;;;;;;9.65;3.65;;;;;;;23.24;53.54;100028.22;5033205;28;20473;-36
2023/08/01 09:45:18;;;;;;;12.73;3.63;;;;;;;23.27;53.42;100049.41;5033510;28;20045;-36
2023/08/01 09:47:45;;;;;;;10.50;3.08;;;;;;;23.28;53.34;100048.38;5023165;28;20053;-37
2023/08/01 09:50:23;;;;;;;10.52;3.33;;;;;;;23.31;53.53;100042.53;5030637;28;20080;-36
2023/08/01 09:52:52;;;;;;;8.25;3.03;;;;;;;23.33;53.36;100041.28;5032214;28;20053;-36
2023/08/01 09:55:30;;;;;;;12.30;3.67;;;;;;;23.35;53.07;100041.09;5033247;28;20048;-37
2023/08/01 09:57:58;;;;;;;12.65;3.33;;;;;;;23.39;52.83;100047.75;5030075;28;20057;-36
2023/08/01 10:00:27;;;;;;;11.70;3.13;;;;;;;23.42;53.01;100028.41;5036944;28;20056;-36
2023/08/01 10:03:01;;;;;;;9.27;2.70;;;;;;;23.45;52.65;100046.91;5037531;28;20141;-36
2023/08/01 10:05:34;;;;;;;8.98;2.63;;;;;;;23.47;52.32;100049.41;5036025;28;20059;-36
2023/08/01 10:08:02;;;;;;;8.50;2.42;;;;;;;23.50;52.63;100046.28;5043269;28;20345;-36
2023/08/01 10:10:29;;;;;;;6.53;2.70;;;;;;;23.52;52.51;100055.88;5040366;28;20050;-35
2023/08/01 10:13:01;;;;;;;8.98;2.40;;;;;;;23.51;52.81;100059.59;5036125;28;20100;-35
2023/08/01 10:15:29;;;;;;;5.68;2.25;;;;;;;23.54;52.65;100067.28;5040283;28;20128;-35
2023/08/01 10:17:57;;;;;;;5.15;1.92;;;;;;;23.54;52.32;100071.88;5027743;28;20095;-35
2023/08/01 10:20:24;;;;;;;10.05;2.70;;;;;;;23.56;52.15;100067.09;5032018;28;20103;-36
2023/08/01 10:22:52;;;;;;;6.32;3.03;;;;;;;23.59;52.11;100067.50;5028591;28;20132;-36
2023/08/01 10:25:21;;;;;;;4.75;2.17;;;;;;;23.62;52.53;100080.59;5032985;28;20049;-36
2023/08/01 10:28:01;;;;;;;7.47;2.33;;;;;;;23.67;52.45;100062.94;5028382;28;20775;-35
2023/08/01 10:30:28;;;;;;;6.28;2.10;;;;;;;23.70;51.93;100067.94;5031699;28;20096;-35
2023/08/01 10:32:56;;;;;;;10.10;2.65;;;;;;;23.71;52.25;100080.41;5031149;28;20116;-35
2023/08/01 10:35:37;;;;;;;7.10;2.08;;;;;;;23.72;52.17;100065.84;5032201;28;20053;-38
2023/08/01 10:38:09;;;;;;;5.97;2.30;;;;;;;23.75;52.35;100068.13;5031908;28;20061;-36
2023/08/01 10:40:43;;;;;;;7.93;2.30;;;;;;;23.77;51.56;100076.88;5031397;28;20433;-35
2023/08/01 10:43:23;;;;;;;5.07;2.03;;;;;;;23.78;51.62;100075.84;5031287;28;20506;-35
2023/08/01 10:46:05;;;;;;;7.25;1.77;;;;;;;23.78;52.19;100078.53;5033247;28;20061;-35
2023/08/01 10:48:31;;;;;;;7.63;2.00;;;;;;;23.79;51.80;100072.91;5031221;28;20056;-35
2023/08/01 10:50:58;;;;;;;6.70;2.63;;;;;;;23.81;51.75;100086.25;5033175;28;20049;-35
2023/08/01 10:53:25;;;;;;;5.47;2.33;;;;;;;23.83;51.51;100078.75;5034885;28;20145;-35
2023/08/01 10:55:52;;;;;;;8.45;2.30;;;;;;;23.82;51.82;100080.63;5031369;28;20052;-37
2023/08/01 10:58:19;;;;;;;4.10;1.50;;;;;;;23.86;51.50;100083.75;5030329;28;20049;-35
2023/08/01 11:00:45;;;;;;;4.47;1.58;;;;;;;23.87;51.70;100086.22;5029608;28;20531;-37
2023/08/01 11:03:12;;;;;;;5.20;2.05;;;;;;;23.88;51.48;100097.91;5028767;28;20330;-35
2023/08/01 11:05:39;;;;;;;6.18;1.65;;;;;;;23.89;51.00;100108.50;5033185;28;20053;-35
2023/08/01 11:08:06;;;;;;;5.90;2.25;;;;;;;23.89;51.47;100081.44;5033420;28;20045;-35
2023/08/01 11:10:33;;;;;;;5.00;2.35;;;;;;;23.90;51.61;100084.97;5037646;28;20432;-35
2023/08/01 11:13:00;;;;;;;4.55;1.60;;;;;;;23.89;51.40;100089.56;5035047;28;20056;-36
2023/08/01 11:15:26;;;;;;;4.20;1.48;;;;;;;23.91;51.32;100094.75;5034408;28;20050;-35
2023/08/01 11:17:55;;;;;;;6.93;1.80;;;;;;;23.92;50.97;100091.03;5032469;28;20053;-34
2023/08/01 11:20:24;;;;;;;3.97;1.50;;;;;;;23.95;50.98;100097.88;5034274;28;20076;-35
2023/08/01 11:22:57;;;;;;;5.43;1.80;;;;;;;23.96;51.20;100092.28;5030596;28;20103;-35
2023/08/01 11:25:45;;;;;;;6.03;2.92;;;;;;;23.97;51.27;100099.34;5034964;28;20052;-35
2023/08/01 11:28:14;;;;;;;5.15;1.60;;;;;;;23.98;51.05;100097.47;5037127;28;20049;-36
2023/08/01 11:30:42;;;;;;;4.90;1.92;;;;;;;24.00;50.94;100104.34;5039137;28;20054;-34